sensor_id;sensor_type;location;lat;lon;timestamp;temperature;humidity
3954;DHT22;1991;48.682;9.030;2022-11-14T00:02:04;5.20;99.90
3954;DHT22;1991;48.682;9.030;2022-11-14T00:04:30;5.20;99.90
3954;DHT22;1991;48.682;9.030;2022-11-14T00:06:56;5.20;99.90
3954;DHT22;1991;48.682;9.030;2022-11-14T00:09:27;5.30;99.90
3954;DHT22;1991;48.682;9.030;2022-11-14T00:11:54;5.20;99.90
3954;DHT22;1991;48.682;9.030;2022-11-14T00:14:20;5.20;99.90
3954;DHT22;1991;48.682;9.030;2022-11-14T00:16:46;5.30;99.90
3954;DHT22;1991;48.682;9.030;2022-11-14T00:19:11;5.30;99.90
3954;DHT22;1991;48.682;9.030;2022-11-14T00:21:37;5.30;99.90
3954;DHT22;1991;48.682;9.030;2022-11-14T00:24:04;5.20;99.90
3954;DHT22;1991;48.682;9.030;2022-11-14T00:26:29;5.20;99.90
3954;DHT22;1991;48.682;9.030;2022-11-14T00:28:55;5.20;99.90
3954;DHT22;1991;48.682;9.030;2022-11-14T00:31:21;5.10;99.90
3954;DHT22;1991;48.682;9.030;2022-11-14T00:33:46;5.10;99.90
3954;DHT22;1991;48.682;9.030;2022-11-14T00:36:12;5.10;99.90
3954;DHT22;1991;48.682;9.030;2022-11-14T00:38:38;5.20;99.90
3954;DHT22;1991;48.682;9.030;2022-11-14T00:41:03;5.10;99.90
3954;DHT22;1991;48.682;9.030;2022-11-14T00:43:29;5.20;99.90
3954;DHT22;1991;48.682;9.030;2022-11-14T00:45:54;5.20;99.90
3954;DHT22;1991;48.682;9.030;2022-11-14T00:48:20;5.10;99.90
3954;DHT22;1991;48.682;9.030;2022-11-14T00:50:46;5.10;99.90
3954;DHT22;1991;48.682;9.030;2022-11-14T00:53:12;5.10;99.90
3954;DHT22;1991;48.682;9.030;2022-11-14T00:55:37;5.10;99.90
3954;DHT22;1991;48.682;9.030;2022-11-14T00:58:03;5.10;99.90
3954;DHT22;1991;48.682;9.030;2022-11-14T01:00:29;5.10;99.90
3954;DHT22;1991;48.682;9.030;2022-11-14T01:02:54;5.10;99.90
3954;DHT22;1991;48.682;9.030;2022-11-14T01:05:22;5.10;99.90
3954;DHT22;1991;48.682;9.030;2022-11-14T01:07:48;5.10;99.90
3954;DHT22;1991;48.682;9.030;2022-11-14T01:10:14;5.10;99.90
3954;DHT22;1991;48.682;9.030;2022-11-14T01:12:40;5.10;99.90
3954;DHT22;1991;48.682;9.030;2022-11-14T01:15:06;5.10;99.90
3954;DHT22;1991;48.682;9.030;2022-11-14T01:17:32;5.10;99.90
3954;DHT22;1991;48.682;9.030;2022-11-14T01:19:58;5.00;99.90
3954;DHT22;1991;48.682;9.030;2022-11-14T01:22:23;5.00;99.90
3954;DHT22;1991;48.682;9.030;2022-11-14T01:24:49;5.00;99.90
3954;DHT22;1991;48.682;9.030;2022-11-14T01:27:14;4.90;99.90
3954;DHT22;1991;48.682;9.030;2022-11-14T01:29:40;5.00;99.90
3954;DHT22;1991;48.682;9.030;2022-11-14T01:32:05;4.90;99.90
3954;DHT22;1991;48.682;9.030;2022-11-14T01:34:31;4.90;99.90
3954;DHT22;1991;48.682;9.030;2022-11-14T01:36:57;4.90;99.90
3954;DHT22;1991;48.682;9.030;2022-11-14T01:39:22;5.00;99.90
3954;DHT22;1991;48.682;9.030;2022-11-14T01:41:48;5.00;99.90
3954;DHT22;1991;48.682;9.030;2022-11-14T01:44:39;5.00;99.90
3954;DHT22;1991;48.682;9.030;2022-11-14T01:47:07;5.10;99.90
3954;DHT22;1991;48.682;9.030;2022-11-14T01:49:39;5.00;99.90
3954;DHT22;1991;48.682;9.030;2022-11-14T01:54:38;5.10;99.90
3954;DHT22;1991;48.682;9.030;2022-11-14T01:57:07;5.10;99.90
3954;DHT22;1991;48.682;9.030;2022-11-14T01:59:37;5.10;99.90
3954;DHT22;1991;48.682;9.030;2022-11-14T02:02:16;5.10;99.90
3954;DHT22;1991;48.682;9.030;2022-11-14T02:04:45;5.00;99.90
3954;DHT22;1991;48.682;9.030;2022-11-14T02:07:13;5.10;99.90
3954;DHT22;1991;48.682;9.030;2022-11-14T02:09:43;5.10;99.90
3954;DHT22;1991;48.682;9.030;2022-11-14T02:12:12;5.10;99.90
3954;DHT22;1991;48.682;9.030;2022-11-14T02:14:40;5.10;99.90
3954;DHT22;1991;48.682;9.030;2022-11-14T02:17:06;5.10;99.90
3954;DHT22;1991;48.682;9.030;2022-11-14T02:19:53;5.00;99.90
3954;DHT22;1991;48.682;9.030;2022-11-14T02:22:19;5.00;99.90
3954;DHT22;1991;48.682;9.030;2022-11-14T02:24:45;5.00;99.90
3954;DHT22;1991;48.682;9.030;2022-11-14T02:27:12;5.00;99.90
3954;DHT22;1991;48.682;9.030;2022-11-14T02:29:38;5.00;99.90
3954;DHT22;1991;48.682;9.030;2022-11-14T02:32:04;5.00;99.90
3954;DHT22;1991;48.682;9.030;2022-11-14T02:34:29;5.00;99.90
3954;DHT22;1991;48.682;9.030;2022-11-14T02:36:55;5.00;99.90
3954;DHT22;1991;48.682;9.030;2022-11-14T02:39:22;4.90;99.90
3954;DHT22;1991;48.682;9.030;2022-11-14T02:41:49;5.00;99.90
3954;DHT22;1991;48.682;9.030;2022-11-14T02:44:14;5.00;99.90
3954;DHT22;1991;48.682;9.030;2022-11-14T02:46:40;5.00;99.90
3954;DHT22;1991;48.682;9.030;2022-11-14T02:49:05;5.10;99.90
3954;DHT22;1991;48.682;9.030;2022-11-14T02:51:31;5.00;99.90
3954;DHT22;1991;48.682;9.030;2022-11-14T02:53:57;5.10;99.90
3954;DHT22;1991;48.682;9.030;2022-11-14T02:56:22;4.90;99.90
3954;DHT22;1991;48.682;9.030;2022-11-14T02:58:48;5.00;99.90
3954;DHT22;1991;48.682;9.030;2022-11-14T03:01:13;4.90;99.90
3954;DHT22;1991;48.682;9.030;2022-11-14T03:03:39;4.80;99.90
3954;DHT22;1991;48.682;9.030;2022-11-14T03:06:04;4.80;99.90
3954;DHT22;1991;48.682;9.030;2022-11-14T03:08:31;4.80;99.90
3954;DHT22;1991;48.682;9.030;2022-11-14T03:11:03;4.80;99.90
3954;DHT22;1991;48.682;9.030;2022-11-14T03:13:29;4.90;99.90
3954;DHT22;1991;48.682;9.030;2022-11-14T03:15:54;4.70;99.90
3954;DHT22;1991;48.682;9.030;2022-11-14T03:18:20;4.70;99.90
3954;DHT22;1991;48.682;9.030;2022-11-14T03:20:46;4.60;99.90
3954;DHT22;1991;48.682;9.030;2022-11-14T03:23:12;4.60;99.90
3954;DHT22;1991;48.682;9.030;2022-11-14T03:25:37;4.60;99.90
3954;DHT22;1991;48.682;9.030;2022-11-14T03:28:03;4.60;99.90
3954;DHT22;1991;48.682;9.030;2022-11-14T03:30:29;4.60;99.90
3954;DHT22;1991;48.682;9.030;2022-11-14T03:32:55;4.50;99.90
3954;DHT22;1991;48.682;9.030;2022-11-14T03:35:21;4.50;99.90
3954;DHT22;1991;48.682;9.030;2022-11-14T03:37:47;4.40;99.90
3954;DHT22;1991;48.682;9.030;2022-11-14T03:40:12;4.40;99.90
3954;DHT22;1991;48.682;9.030;2022-11-14T03:42:38;4.30;99.90
3954;DHT22;1991;48.682;9.030;2022-11-14T03:45:04;4.30;99.90
3954;DHT22;1991;48.682;9.030;2022-11-14T03:47:29;4.30;99.90
3954;DHT22;1991;48.682;9.030;2022-11-14T03:49:55;4.30;99.90
3954;DHT22;1991;48.682;9.030;2022-11-14T03:52:21;4.40;99.90
3954;DHT22;1991;48.682;9.030;2022-11-14T03:54:46;4.40;99.90
3954;DHT22;1991;48.682;9.030;2022-11-14T03:57:12;4.40;99.90
3954;DHT22;1991;48.682;9.030;2022-11-14T03:59:37;4.40;99.90
3954;DHT22;1991;48.682;9.030;2022-11-14T04:02:03;4.50;99.90
3954;DHT22;1991;48.682;9.030;2022-11-14T04:04:28;4.50;99.90
3954;DHT22;1991;48.682;9.030;2022-11-14T04:06:54;4.50;99.90
3954;DHT22;1991;48.682;9.030;2022-11-14T04:09:19;4.50;99.90
3954;DHT22;1991;48.682;9.030;2022-11-14T04:11:45;4.60;99.90
3954;DHT22;1991;48.682;9.030;2022-11-14T04:14:11;4.60;99.90
3954;DHT22;1991;48.682;9.030;2022-11-14T04:16:36;4.60;99.90
3954;DHT22;1991;48.682;9.030;2022-11-14T04:19:02;4.50;99.90
3954;DHT22;1991;48.682;9.030;2022-11-14T04:21:27;4.50;99.90
3954;DHT22;1991;48.682;9.030;2022-11-14T04:23:53;4.50;99.90
3954;DHT22;1991;48.682;9.030;2022-11-14T04:26:18;4.40;99.90
3954;DHT22;1991;48.682;9.030;2022-11-14T04:28:44;4.40;99.90
3954;DHT22;1991;48.682;9.030;2022-11-14T04:31:10;4.30;99.90
3954;DHT22;1991;48.682;9.030;2022-11-14T04:33:35;4.30;99.90
3954;DHT22;1991;48.682;9.030;2022-11-14T04:36:01;4.30;99.90
3954;DHT22;1991;48.682;9.030;2022-11-14T04:38:26;4.40;99.90
3954;DHT22;1991;48.682;9.030;2022-11-14T04:40:52;4.40;99.90
3954;DHT22;1991;48.682;9.030;2022-11-14T04:43:19;4.30;99.90
3954;DHT22;1991;48.682;9.030;2022-11-14T04:45:45;4.30;99.90
3954;DHT22;1991;48.682;9.030;2022-11-14T04:48:11;4.30;99.90
3954;DHT22;1991;48.682;9.030;2022-11-14T04:50:36;4.30;99.90
3954;DHT22;1991;48.682;9.030;2022-11-14T04:53:02;4.30;99.90
3954;DHT22;1991;48.682;9.030;2022-11-14T04:55:28;4.30;99.90
3954;DHT22;1991;48.682;9.030;2022-11-14T04:57:55;4.30;99.90
3954;DHT22;1991;48.682;9.030;2022-11-14T05:00:21;4.30;99.90
3954;DHT22;1991;48.682;9.030;2022-11-14T05:02:47;4.30;99.90
3954;DHT22;1991;48.682;9.030;2022-11-14T05:05:13;4.30;99.90
3954;DHT22;1991;48.682;9.030;2022-11-14T05:07:38;4.20;99.90
3954;DHT22;1991;48.682;9.030;2022-11-14T05:10:04;4.30;99.90
3954;DHT22;1991;48.682;9.030;2022-11-14T05:12:30;4.20;99.90
3954;DHT22;1991;48.682;9.030;2022-11-14T05:14:56;4.20;99.90
3954;DHT22;1991;48.682;9.030;2022-11-14T05:17:21;4.20;99.90
3954;DHT22;1991;48.682;9.030;2022-11-14T05:19:47;4.20;99.90
3954;DHT22;1991;48.682;9.030;2022-11-14T05:22:13;4.20;99.90
3954;DHT22;1991;48.682;9.030;2022-11-14T05:24:38;4.20;99.90
3954;DHT22;1991;48.682;9.030;2022-11-14T05:27:04;4.10;99.90
3954;DHT22;1991;48.682;9.030;2022-11-14T05:29:30;4.10;99.90
3954;DHT22;1991;48.682;9.030;2022-11-14T05:31:55;4.10;99.90
3954;DHT22;1991;48.682;9.030;2022-11-14T05:34:22;4.10;99.90
3954;DHT22;1991;48.682;9.030;2022-11-14T05:36:48;4.20;99.90
3954;DHT22;1991;48.682;9.030;2022-11-14T05:39:14;4.20;99.90
3954;DHT22;1991;48.682;9.030;2022-11-14T05:41:40;4.20;99.90
3954;DHT22;1991;48.682;9.030;2022-11-14T05:44:05;4.20;99.90
3954;DHT22;1991;48.682;9.030;2022-11-14T05:46:31;4.20;99.90
3954;DHT22;1991;48.682;9.030;2022-11-14T05:48:57;4.20;99.90
3954;DHT22;1991;48.682;9.030;2022-11-14T05:51:22;4.20;99.90
3954;DHT22;1991;48.682;9.030;2022-11-14T05:53:48;4.20;99.90
3954;DHT22;1991;48.682;9.030;2022-11-14T05:56:14;4.20;99.90
3954;DHT22;1991;48.682;9.030;2022-11-14T05:58:39;4.20;99.90
3954;DHT22;1991;48.682;9.030;2022-11-14T06:01:14;4.30;99.90
3954;DHT22;1991;48.682;9.030;2022-11-14T06:03:42;4.20;99.90
3954;DHT22;1991;48.682;9.030;2022-11-14T06:06:11;4.30;99.90
3954;DHT22;1991;48.682;9.030;2022-11-14T06:08:37;4.30;99.90
3954;DHT22;1991;48.682;9.030;2022-11-14T06:11:06;4.40;99.90
3954;DHT22;1991;48.682;9.030;2022-11-14T06:13:32;4.40;99.90
3954;DHT22;1991;48.682;9.030;2022-11-14T06:15:58;4.40;99.90
3954;DHT22;1991;48.682;9.030;2022-11-14T06:18:25;4.50;99.90
3954;DHT22;1991;48.682;9.030;2022-11-14T06:20:51;4.60;99.90
3954;DHT22;1991;48.682;9.030;2022-11-14T06:23:16;4.60;99.90
3954;DHT22;1991;48.682;9.030;2022-11-14T06:25:42;4.60;99.90
3954;DHT22;1991;48.682;9.030;2022-11-14T06:28:07;4.70;99.90
3954;DHT22;1991;48.682;9.030;2022-11-14T06:30:33;4.70;99.90
3954;DHT22;1991;48.682;9.030;2022-11-14T06:32:59;4.80;99.90
3954;DHT22;1991;48.682;9.030;2022-11-14T06:35:25;4.80;99.90
3954;DHT22;1991;48.682;9.030;2022-11-14T06:37:51;4.90;99.90
3954;DHT22;1991;48.682;9.030;2022-11-14T06:40:17;4.90;99.90
3954;DHT22;1991;48.682;9.030;2022-11-14T06:42:42;4.90;99.90
3954;DHT22;1991;48.682;9.030;2022-11-14T06:45:08;4.90;99.90
3954;DHT22;1991;48.682;9.030;2022-11-14T06:47:34;4.90;99.90
3954;DHT22;1991;48.682;9.030;2022-11-14T06:49:59;5.00;99.90
3954;DHT22;1991;48.682;9.030;2022-11-14T06:52:25;5.00;99.90
3954;DHT22;1991;48.682;9.030;2022-11-14T06:54:51;5.00;99.90
3954;DHT22;1991;48.682;9.030;2022-11-14T06:57:17;5.10;99.90
3954;DHT22;1991;48.682;9.030;2022-11-14T06:59:42;5.10;99.90
3954;DHT22;1991;48.682;9.030;2022-11-14T07:02:12;5.10;99.90
3954;DHT22;1991;48.682;9.030;2022-11-14T07:04:37;5.10;99.90
3954;DHT22;1991;48.682;9.030;2022-11-14T07:07:03;5.10;99.90
3954;DHT22;1991;48.682;9.030;2022-11-14T07:09:29;5.10;99.90
3954;DHT22;1991;48.682;9.030;2022-11-14T07:11:54;5.10;99.90
3954;DHT22;1991;48.682;9.030;2022-11-14T07:14:20;5.10;99.90
3954;DHT22;1991;48.682;9.030;2022-11-14T07:16:45;5.10;99.90
3954;DHT22;1991;48.682;9.030;2022-11-14T07:19:11;5.20;99.90
3954;DHT22;1991;48.682;9.030;2022-11-14T07:21:37;5.20;99.90
3954;DHT22;1991;48.682;9.030;2022-11-14T07:24:03;5.20;99.90
3954;DHT22;1991;48.682;9.030;2022-11-14T07:26:29;5.30;99.90
3954;DHT22;1991;48.682;9.030;2022-11-14T07:28:54;5.30;99.90
3954;DHT22;1991;48.682;9.030;2022-11-14T07:31:20;5.30;99.90
3954;DHT22;1991;48.682;9.030;2022-11-14T07:33:46;5.30;99.90
3954;DHT22;1991;48.682;9.030;2022-11-14T07:36:13;5.40;99.90
3954;DHT22;1991;48.682;9.030;2022-11-14T07:38:39;5.40;99.90
3954;DHT22;1991;48.682;9.030;2022-11-14T07:41:10;5.40;99.90
3954;DHT22;1991;48.682;9.030;2022-11-14T07:43:37;5.50;99.90
3954;DHT22;1991;48.682;9.030;2022-11-14T07:46:05;5.50;99.90
3954;DHT22;1991;48.682;9.030;2022-11-14T07:48:31;5.50;99.90
3954;DHT22;1991;48.682;9.030;2022-11-14T07:51:00;5.50;99.90
3954;DHT22;1991;48.682;9.030;2022-11-14T07:53:27;5.50;99.90
3954;DHT22;1991;48.682;9.030;2022-11-14T07:55:53;5.60;99.90
3954;DHT22;1991;48.682;9.030;2022-11-14T07:58:19;5.60;99.90
3954;DHT22;1991;48.682;9.030;2022-11-14T08:00:44;5.80;99.90
3954;DHT22;1991;48.682;9.030;2022-11-14T08:03:10;5.90;99.90
3954;DHT22;1991;48.682;9.030;2022-11-14T08:05:36;6.00;99.90
3954;DHT22;1991;48.682;9.030;2022-11-14T08:08:02;6.10;99.90
3954;DHT22;1991;48.682;9.030;2022-11-14T08:10:28;6.20;99.90
3954;DHT22;1991;48.682;9.030;2022-11-14T08:12:58;6.30;99.90
3954;DHT22;1991;48.682;9.030;2022-11-14T08:15:25;6.40;99.90
3954;DHT22;1991;48.682;9.030;2022-11-14T08:17:50;6.60;99.90
3954;DHT22;1991;48.682;9.030;2022-11-14T08:20:16;6.60;99.90
3954;DHT22;1991;48.682;9.030;2022-11-14T08:22:42;6.70;99.90
3954;DHT22;1991;48.682;9.030;2022-11-14T08:25:07;6.90;99.90
3954;DHT22;1991;48.682;9.030;2022-11-14T08:27:33;7.00;99.90
3954;DHT22;1991;48.682;9.030;2022-11-14T08:29:59;7.20;99.90
3954;DHT22;1991;48.682;9.030;2022-11-14T08:32:24;7.30;99.90
3954;DHT22;1991;48.682;9.030;2022-11-14T08:34:50;7.50;99.90
3954;DHT22;1991;48.682;9.030;2022-11-14T08:37:16;7.50;99.90
3954;DHT22;1991;48.682;9.030;2022-11-14T08:39:41;7.60;99.90
3954;DHT22;1991;48.682;9.030;2022-11-14T08:42:07;7.70;99.90
3954;DHT22;1991;48.682;9.030;2022-11-14T08:44:32;7.80;99.90
3954;DHT22;1991;48.682;9.030;2022-11-14T08:46:58;7.90;99.90
3954;DHT22;1991;48.682;9.030;2022-11-14T08:49:25;8.00;99.90
3954;DHT22;1991;48.682;9.030;2022-11-14T08:51:51;8.10;99.90
3954;DHT22;1991;48.682;9.030;2022-11-14T08:54:17;8.10;99.90
3954;DHT22;1991;48.682;9.030;2022-11-14T08:56:43;8.10;99.90
3954;DHT22;1991;48.682;9.030;2022-11-14T08:59:08;8.20;99.90
3954;DHT22;1991;48.682;9.030;2022-11-14T09:01:34;8.20;99.90
3954;DHT22;1991;48.682;9.030;2022-11-14T09:04:00;8.30;99.90
3954;DHT22;1991;48.682;9.030;2022-11-14T09:06:25;8.30;99.90
3954;DHT22;1991;48.682;9.030;2022-11-14T09:08:51;8.30;99.90
3954;DHT22;1991;48.682;9.030;2022-11-14T09:11:17;8.30;99.90
3954;DHT22;1991;48.682;9.030;2022-11-14T09:13:42;8.30;99.90
3954;DHT22;1991;48.682;9.030;2022-11-14T09:16:08;8.30;99.90
3954;DHT22;1991;48.682;9.030;2022-11-14T09:18:34;8.30;99.90
3954;DHT22;1991;48.682;9.030;2022-11-14T09:21:04;8.30;99.90
3954;DHT22;1991;48.682;9.030;2022-11-14T09:23:30;8.40;99.90
3954;DHT22;1991;48.682;9.030;2022-11-14T09:25:56;8.40;99.90
3954;DHT22;1991;48.682;9.030;2022-11-14T09:28:24;8.40;99.90
3954;DHT22;1991;48.682;9.030;2022-11-14T09:30:50;8.40;99.90
3954;DHT22;1991;48.682;9.030;2022-11-14T09:33:16;8.50;99.90
3954;DHT22;1991;48.682;9.030;2022-11-14T09:35:41;8.50;99.90
3954;DHT22;1991;48.682;9.030;2022-11-14T09:38:09;8.50;99.90
3954;DHT22;1991;48.682;9.030;2022-11-14T09:46:26;8.60;99.90
3954;DHT22;1991;48.682;9.030;2022-11-14T09:48:52;8.60;99.90
3954;DHT22;1991;48.682;9.030;2022-11-14T09:56:39;8.80;99.90
3954;DHT22;1991;48.682;9.030;2022-11-14T09:59:12;8.90;99.90
3954;DHT22;1991;48.682;9.030;2022-11-14T10:02:05;9.00;99.90
3954;DHT22;1991;48.682;9.030;2022-11-14T10:05:10;9.20;99.90
3954;DHT22;1991;48.682;9.030;2022-11-14T10:08:02;9.40;99.90
3954;DHT22;1991;48.682;9.030;2022-11-14T10:19:39;12.70;99.90
3954;DHT22;1991;48.682;9.030;2022-11-14T10:25:20;11.20;99.90
3954;DHT22;1991;48.682;9.030;2022-11-14T10:30:53;10.30;99.90
3954;DHT22;1991;48.682;9.030;2022-11-14T10:36:44;10.00;99.90
3954;DHT22;1991;48.682;9.030;2022-11-14T10:41:51;10.20;99.90
3954;DHT22;1991;48.682;9.030;2022-11-14T10:44:24;10.80;99.90
3954;DHT22;1991;48.682;9.030;2022-11-14T10:47:00;11.20;99.90
3954;DHT22;1991;48.682;9.030;2022-11-14T10:49:31;11.10;99.90
3954;DHT22;1991;48.682;9.030;2022-11-14T10:52:02;10.90;99.90
3954;DHT22;1991;48.682;9.030;2022-11-14T10:54:49;10.80;99.90
3954;DHT22;1991;48.682;9.030;2022-11-14T10:57:19;10.70;99.90
3954;DHT22;1991;48.682;9.030;2022-11-14T10:59:45;10.80;99.90
3954;DHT22;1991;48.682;9.030;2022-11-14T11:02:11;10.80;99.90
3954;DHT22;1991;48.682;9.030;2022-11-14T11:04:39;10.80;99.90
3954;DHT22;1991;48.682;9.030;2022-11-14T11:09:35;10.80;99.90
3954;DHT22;1991;48.682;9.030;2022-11-14T11:12:22;10.60;99.90
3954;DHT22;1991;48.682;9.030;2022-11-14T11:17:31;10.50;99.90
3954;DHT22;1991;48.682;9.030;2022-11-14T11:20:28;10.50;99.90
3954;DHT22;1991;48.682;9.030;2022-11-14T11:25:32;10.40;99.90
3954;DHT22;1991;48.682;9.030;2022-11-14T11:28:13;10.30;99.90
3954;DHT22;1991;48.682;9.030;2022-11-14T11:30:39;10.30;99.90
3954;DHT22;1991;48.682;9.030;2022-11-14T11:35:40;10.30;99.90
3954;DHT22;1991;48.682;9.030;2022-11-14T11:38:08;10.20;99.90
3954;DHT22;1991;48.682;9.030;2022-11-14T11:40:36;10.20;99.90
3954;DHT22;1991;48.682;9.030;2022-11-14T11:43:07;10.20;99.90
3954;DHT22;1991;48.682;9.030;2022-11-14T11:45:33;10.20;99.90
3954;DHT22;1991;48.682;9.030;2022-11-14T11:48:07;10.20;99.90
3954;DHT22;1991;48.682;9.030;2022-11-14T11:50:34;10.20;99.90
3954;DHT22;1991;48.682;9.030;2022-11-14T11:53:05;10.20;99.90
3954;DHT22;1991;48.682;9.030;2022-11-14T11:55:40;10.20;99.90
3954;DHT22;1991;48.682;9.030;2022-11-14T11:58:20;10.20;99.90
3954;DHT22;1991;48.682;9.030;2022-11-14T12:00:53;10.20;99.90
3954;DHT22;1991;48.682;9.030;2022-11-14T12:03:23;10.30;99.90
3954;DHT22;1991;48.682;9.030;2022-11-14T12:11:23;10.50;99.90
3954;DHT22;1991;48.682;9.030;2022-11-14T12:30:35;12.60;99.90
3954;DHT22;1991;48.682;9.030;2022-11-14T12:33:28;12.80;99.90
3954;DHT22;1991;48.682;9.030;2022-11-14T12:36:03;12.70;99.90
3954;DHT22;1991;48.682;9.030;2022-11-14T12:38:48;12.90;99.90
3954;DHT22;1991;48.682;9.030;2022-11-14T12:41:35;13.30;99.90
3954;DHT22;1991;48.682;9.030;2022-11-14T13:00:30;14.80;99.90
3954;DHT22;1991;48.682;9.030;2022-11-14T13:06:03;14.40;99.90
3954;DHT22;1991;48.682;9.030;2022-11-14T13:08:51;14.10;99.90
3954;DHT22;1991;48.682;9.030;2022-11-14T13:14:17;13.50;99.90
3954;DHT22;1991;48.682;9.030;2022-11-14T13:20:21;13.60;99.90
3954;DHT22;1991;48.682;9.030;2022-11-14T13:33:52;14.10;99.90
3954;DHT22;1991;48.682;9.030;2022-11-14T13:36:53;14.10;99.90
3954;DHT22;1991;48.682;9.030;2022-11-14T13:39:51;13.90;99.90
3954;DHT22;1991;48.682;9.030;2022-11-14T13:52:31;14.30;99.90
3954;DHT22;1991;48.682;9.030;2022-11-14T13:54:57;14.20;99.90
3954;DHT22;1991;48.682;9.030;2022-11-14T14:00:15;14.40;99.90
3954;DHT22;1991;48.682;9.030;2022-11-14T14:03:03;14.50;99.90
3954;DHT22;1991;48.682;9.030;2022-11-14T14:05:36;14.60;99.90
3954;DHT22;1991;48.682;9.030;2022-11-14T14:10:53;14.20;99.70
3954;DHT22;1991;48.682;9.030;2022-11-14T14:16:21;13.80;99.90
3954;DHT22;1991;48.682;9.030;2022-11-14T14:19:02;13.50;99.90
3954;DHT22;1991;48.682;9.030;2022-11-14T14:30:31;12.90;99.90
3954;DHT22;1991;48.682;9.030;2022-11-14T14:35:33;13.00;99.90
3954;DHT22;1991;48.682;9.030;2022-11-14T14:38:00;12.90;99.90
3954;DHT22;1991;48.682;9.030;2022-11-14T14:40:31;12.70;99.90
3954;DHT22;1991;48.682;9.030;2022-11-14T14:43:03;12.60;99.90
3954;DHT22;1991;48.682;9.030;2022-11-14T14:45:34;12.40;99.90
3954;DHT22;1991;48.682;9.030;2022-11-14T14:48:04;12.30;99.90
3954;DHT22;1991;48.682;9.030;2022-11-14T14:50:41;12.20;99.90
3954;DHT22;1991;48.682;9.030;2022-11-14T14:53:21;12.10;99.90
3954;DHT22;1991;48.682;9.030;2022-11-14T15:00:55;11.90;99.90
3954;DHT22;1991;48.682;9.030;2022-11-14T15:03:24;11.90;99.90
3954;DHT22;1991;48.682;9.030;2022-11-14T15:05:58;11.90;99.90
3954;DHT22;1991;48.682;9.030;2022-11-14T15:08:24;11.90;99.90
3954;DHT22;1991;48.682;9.030;2022-11-14T15:10:53;12.00;99.90
3954;DHT22;1991;48.682;9.030;2022-11-14T15:13:22;12.40;99.90
3954;DHT22;1991;48.682;9.030;2022-11-14T15:15:49;12.40;99.90
3954;DHT22;1991;48.682;9.030;2022-11-14T15:18:27;12.30;99.90
3954;DHT22;1991;48.682;9.030;2022-11-14T15:21:14;12.10;99.90
3954;DHT22;1991;48.682;9.030;2022-11-14T15:23:40;11.90;99.90
3954;DHT22;1991;48.682;9.030;2022-11-14T15:26:16;11.70;99.90
3954;DHT22;1991;48.682;9.030;2022-11-14T15:28:43;11.60;99.90
3954;DHT22;1991;48.682;9.030;2022-11-14T15:31:18;11.50;99.90
3954;DHT22;1991;48.682;9.030;2022-11-14T15:33:45;11.40;99.90
3954;DHT22;1991;48.682;9.030;2022-11-14T15:36:24;11.30;99.90
3954;DHT22;1991;48.682;9.030;2022-11-14T15:39:01;11.30;99.90
3954;DHT22;1991;48.682;9.030;2022-11-14T15:41:27;11.20;99.90
3954;DHT22;1991;48.682;9.030;2022-11-14T15:43:55;11.20;99.90
3954;DHT22;1991;48.682;9.030;2022-11-14T15:46:46;11.10;99.90
3954;DHT22;1991;48.682;9.030;2022-11-14T15:51:57;11.10;99.90
3954;DHT22;1991;48.682;9.030;2022-11-14T15:54:32;11.00;99.90
3954;DHT22;1991;48.682;9.030;2022-11-14T15:57:08;11.00;99.90
3954;DHT22;1991;48.682;9.030;2022-11-14T15:59:36;11.00;99.90
3954;DHT22;1991;48.682;9.030;2022-11-14T16:04:36;10.90;99.90
3954;DHT22;1991;48.682;9.030;2022-11-14T16:07:03;10.80;99.90
3954;DHT22;1991;48.682;9.030;2022-11-14T16:09:29;10.80;99.90
3954;DHT22;1991;48.682;9.030;2022-11-14T16:11:55;10.80;99.90
3954;DHT22;1991;48.682;9.030;2022-11-14T16:14:21;10.70;99.90
3954;DHT22;1991;48.682;9.030;2022-11-14T16:16:46;10.60;99.90
3954;DHT22;1991;48.682;9.030;2022-11-14T16:19:14;10.60;99.90
3954;DHT22;1991;48.682;9.030;2022-11-14T16:21:40;10.60;99.90
3954;DHT22;1991;48.682;9.030;2022-11-14T16:24:10;10.60;99.90
3954;DHT22;1991;48.682;9.030;2022-11-14T16:26:36;10.50;99.90
3954;DHT22;1991;48.682;9.030;2022-11-14T16:29:02;10.50;99.90
3954;DHT22;1991;48.682;9.030;2022-11-14T16:31:28;10.50;99.90
3954;DHT22;1991;48.682;9.030;2022-11-14T16:33:53;10.50;99.90
3954;DHT22;1991;48.682;9.030;2022-11-14T16:36:21;10.50;99.90
3954;DHT22;1991;48.682;9.030;2022-11-14T16:38:47;10.50;99.90
3954;DHT22;1991;48.682;9.030;2022-11-14T16:41:13;10.50;99.90
3954;DHT22;1991;48.682;9.030;2022-11-14T16:43:40;10.50;99.90
3954;DHT22;1991;48.682;9.030;2022-11-14T16:46:06;10.40;99.90
3954;DHT22;1991;48.682;9.030;2022-11-14T16:48:32;10.40;99.90
3954;DHT22;1991;48.682;9.030;2022-11-14T16:51:01;10.40;99.90
3954;DHT22;1991;48.682;9.030;2022-11-14T16:53:28;10.40;99.90
3954;DHT22;1991;48.682;9.030;2022-11-14T16:55:54;10.30;99.90
3954;DHT22;1991;48.682;9.030;2022-11-14T16:58:19;10.30;99.90
3954;DHT22;1991;48.682;9.030;2022-11-14T17:00:45;10.30;99.90
3954;DHT22;1991;48.682;9.030;2022-11-14T17:03:10;10.30;99.90
3954;DHT22;1991;48.682;9.030;2022-11-14T17:05:52;10.20;99.90
3954;DHT22;1991;48.682;9.030;2022-11-14T17:08:17;10.20;99.90
3954;DHT22;1991;48.682;9.030;2022-11-14T17:10:44;10.10;99.90
3954;DHT22;1991;48.682;9.030;2022-11-14T17:13:12;10.10;99.90
3954;DHT22;1991;48.682;9.030;2022-11-14T17:15:37;10.10;99.90
3954;DHT22;1991;48.682;9.030;2022-11-14T17:18:04;10.10;99.90
3954;DHT22;1991;48.682;9.030;2022-11-14T17:20:30;10.10;99.90
3954;DHT22;1991;48.682;9.030;2022-11-14T17:22:56;10.10;99.90
3954;DHT22;1991;48.682;9.030;2022-11-14T17:25:22;10.10;99.90
3954;DHT22;1991;48.682;9.030;2022-11-14T17:27:47;10.10;99.90
3954;DHT22;1991;48.682;9.030;2022-11-14T17:30:14;10.10;99.90
3954;DHT22;1991;48.682;9.030;2022-11-14T17:32:40;10.10;99.90
3954;DHT22;1991;48.682;9.030;2022-11-14T17:35:06;10.10;99.90
3954;DHT22;1991;48.682;9.030;2022-11-14T17:37:32;10.20;99.90
3954;DHT22;1991;48.682;9.030;2022-11-14T17:39:58;10.20;99.90
3954;DHT22;1991;48.682;9.030;2022-11-14T17:42:23;10.10;99.90
3954;DHT22;1991;48.682;9.030;2022-11-14T17:44:49;10.10;99.90
3954;DHT22;1991;48.682;9.030;2022-11-14T17:47:15;10.10;99.90
3954;DHT22;1991;48.682;9.030;2022-11-14T17:49:40;10.10;99.90
3954;DHT22;1991;48.682;9.030;2022-11-14T17:52:06;10.10;99.90
3954;DHT22;1991;48.682;9.030;2022-11-14T17:54:31;10.10;99.90
3954;DHT22;1991;48.682;9.030;2022-11-14T17:57:04;10.10;99.90
3954;DHT22;1991;48.682;9.030;2022-11-14T17:59:30;10.10;99.90
3954;DHT22;1991;48.682;9.030;2022-11-14T18:01:55;10.10;99.90
3954;DHT22;1991;48.682;9.030;2022-11-14T18:04:24;10.10;99.90
3954;DHT22;1991;48.682;9.030;2022-11-14T18:06:50;10.10;99.90
3954;DHT22;1991;48.682;9.030;2022-11-14T18:09:16;10.10;99.90
3954;DHT22;1991;48.682;9.030;2022-11-14T18:11:42;10.20;99.90
3954;DHT22;1991;48.682;9.030;2022-11-14T18:14:08;10.20;99.90
3954;DHT22;1991;48.682;9.030;2022-11-14T18:16:34;10.20;99.90
3954;DHT22;1991;48.682;9.030;2022-11-14T18:18:59;10.20;99.90
3954;DHT22;1991;48.682;9.030;2022-11-14T18:21:26;10.30;99.90
3954;DHT22;1991;48.682;9.030;2022-11-14T18:23:53;10.30;99.90
3954;DHT22;1991;48.682;9.030;2022-11-14T18:26:20;10.30;99.90
3954;DHT22;1991;48.682;9.030;2022-11-14T18:28:52;10.30;99.90
3954;DHT22;1991;48.682;9.030;2022-11-14T18:31:17;10.30;99.90
3954;DHT22;1991;48.682;9.030;2022-11-14T18:33:43;10.30;99.90
3954;DHT22;1991;48.682;9.030;2022-11-14T18:36:12;10.30;99.90
3954;DHT22;1991;48.682;9.030;2022-11-14T18:38:39;10.30;99.90
3954;DHT22;1991;48.682;9.030;2022-11-14T18:41:09;10.30;99.90
3954;DHT22;1991;48.682;9.030;2022-11-14T18:43:37;10.40;99.90